sensor_id;sensor_type;location;lat;lon;timestamp;temperature;humidity
52323;DHT22;38263;52.920;6.238;2023-08-12T00:00:10;18.80;99.90
52323;DHT22;38263;52.920;6.238;2023-08-12T00:02:40;19.00;99.90
52323;DHT22;38263;52.920;6.238;2023-08-12T00:05:06;18.80;99.90
52323;DHT22;38263;52.920;6.238;2023-08-12T00:07:33;18.90;99.90
52323;DHT22;38263;52.920;6.238;2023-08-12T00:09:59;18.80;99.90
52323;DHT22;38263;52.920;6.238;2023-08-12T00:12:25;18.90;99.90
52323;DHT22;38263;52.920;6.238;2023-08-12T00:14:50;18.80;99.90
52323;DHT22;38263;52.920;6.238;2023-08-12T00:17:16;18.90;99.90
52323;DHT22;38263;52.920;6.238;2023-08-12T00:19:42;18.90;99.90
52323;DHT22;38263;52.920;6.238;2023-08-12T00:22:07;18.90;99.90
52323;DHT22;38263;52.920;6.238;2023-08-12T00:24:33;18.90;99.90
52323;DHT22;38263;52.920;6.238;2023-08-12T00:26:58;18.90;99.90
52323;DHT22;38263;52.920;6.238;2023-08-12T00:29:24;18.90;99.90
52323;DHT22;38263;52.920;6.238;2023-08-12T00:31:50;18.90;99.90
52323;DHT22;38263;52.920;6.238;2023-08-12T00:34:16;18.90;99.90
52323;DHT22;38263;52.920;6.238;2023-08-12T00:36:42;18.90;99.90
52323;DHT22;38263;52.920;6.238;2023-08-12T00:39:07;19.00;99.90
52323;DHT22;38263;52.920;6.238;2023-08-12T00:41:33;19.20;99.90
52323;DHT22;38263;52.920;6.238;2023-08-12T00:43:59;18.90;99.90
52323;DHT22;38263;52.920;6.238;2023-08-12T00:46:24;18.80;99.90
52323;DHT22;38263;52.920;6.238;2023-08-12T00:48:50;18.80;99.90
52323;DHT22;38263;52.920;6.238;2023-08-12T00:51:16;18.90;99.90
52323;DHT22;38263;52.920;6.238;2023-08-12T00:53:42;18.90;99.90
52323;DHT22;38263;52.920;6.238;2023-08-12T00:56:08;18.90;99.90
52323;DHT22;38263;52.920;6.238;2023-08-12T00:58:35;19.00;99.90
52323;DHT22;38263;52.920;6.238;2023-08-12T01:01:00;18.90;99.90
52323;DHT22;38263;52.920;6.238;2023-08-12T01:03:26;18.90;99.90
52323;DHT22;38263;52.920;6.238;2023-08-12T01:05:52;18.90;99.90
52323;DHT22;38263;52.920;6.238;2023-08-12T01:10:52;19.10;99.90
52323;DHT22;38263;52.920;6.238;2023-08-12T01:13:38;19.00;99.90
52323;DHT22;38263;52.920;6.238;2023-08-12T01:16:08;19.00;99.90
52323;DHT22;38263;52.920;6.238;2023-08-12T01:21:01;19.00;99.90
52323;DHT22;38263;52.920;6.238;2023-08-12T01:23:29;18.90;99.90
52323;DHT22;38263;52.920;6.238;2023-08-12T01:25:55;18.80;99.90
52323;DHT22;38263;52.920;6.238;2023-08-12T01:30:54;18.70;99.90
52323;DHT22;38263;52.920;6.238;2023-08-12T01:33:30;18.50;99.90
52323;DHT22;38263;52.920;6.238;2023-08-12T01:36:08;18.60;99.90
52323;DHT22;38263;52.920;6.238;2023-08-12T01:38:35;18.70;99.90
52323;DHT22;38263;52.920;6.238;2023-08-12T01:41:03;18.60;99.90
52323;DHT22;38263;52.920;6.238;2023-08-12T01:43:29;18.50;99.90
52323;DHT22;38263;52.920;6.238;2023-08-12T01:45:55;18.50;99.90
52323;DHT22;38263;52.920;6.238;2023-08-12T01:48:20;18.50;99.90
52323;DHT22;38263;52.920;6.238;2023-08-12T01:50:48;18.50;99.90
52323;DHT22;38263;52.920;6.238;2023-08-12T01:53:14;18.60;99.90
52323;DHT22;38263;52.920;6.238;2023-08-12T01:55:43;18.60;99.90
52323;DHT22;38263;52.920;6.238;2023-08-12T02:00:35;18.80;99.90
52323;DHT22;38263;52.920;6.238;2023-08-12T02:03:00;18.70;99.90
52323;DHT22;38263;52.920;6.238;2023-08-12T02:10:18;19.00;99.90
52323;DHT22;38263;52.920;6.238;2023-08-12T02:12:43;19.10;99.90
52323;DHT22;38263;52.920;6.238;2023-08-12T02:15:09;18.90;99.90
52323;DHT22;38263;52.920;6.238;2023-08-12T02:34:39;18.60;99.90
52323;DHT22;38263;52.920;6.238;2023-08-12T02:37:04;18.60;99.90
52323;DHT22;38263;52.920;6.238;2023-08-12T02:39:30;18.70;99.90
52323;DHT22;38263;52.920;6.238;2023-08-12T02:46:47;18.80;99.90
52323;DHT22;38263;52.920;6.238;2023-08-12T02:54:05;18.70;99.90
52323;DHT22;38263;52.920;6.238;2023-08-12T03:01:23;18.70;99.90
52323;DHT22;38263;52.920;6.238;2023-08-12T03:03:48;18.70;99.90
52323;DHT22;38263;52.920;6.238;2023-08-12T03:11:05;18.90;99.90
52323;DHT22;38263;52.920;6.238;2023-08-12T03:13:31;18.70;99.90
52323;DHT22;38263;52.920;6.238;2023-08-12T03:18:23;18.80;99.90
52323;DHT22;38263;52.920;6.238;2023-08-12T03:23:14;18.60;99.90
52323;DHT22;38263;52.920;6.238;2023-08-12T03:28:06;18.70;99.90
52323;DHT22;38263;52.920;6.238;2023-08-12T03:30:32;18.70;99.90
52323;DHT22;38263;52.920;6.238;2023-08-12T03:35:23;18.80;99.90
52323;DHT22;38263;52.920;6.238;2023-08-12T03:37:49;18.90;99.90
52323;DHT22;38263;52.920;6.238;2023-08-12T03:42:42;18.80;99.90
52323;DHT22;38263;52.920;6.238;2023-08-12T03:45:08;18.70;99.90
52323;DHT22;38263;52.920;6.238;2023-08-12T03:47:37;18.60;99.90
52323;DHT22;38263;52.920;6.238;2023-08-12T03:50:02;18.80;99.90
52323;DHT22;38263;52.920;6.238;2023-08-12T03:55:57;18.80;99.90
52323;DHT22;38263;52.920;6.238;2023-08-12T04:00:48;18.80;99.90
52323;DHT22;38263;52.920;6.238;2023-08-12T04:03:14;18.80;99.90
52323;DHT22;38263;52.920;6.238;2023-08-12T04:05:47;18.70;99.90
52323;DHT22;38263;52.920;6.238;2023-08-12T04:08:13;18.80;99.90
52323;DHT22;38263;52.920;6.238;2023-08-12T04:10:39;18.80;99.90
52323;DHT22;38263;52.920;6.238;2023-08-12T04:15:31;19.00;99.90
52323;DHT22;38263;52.920;6.238;2023-08-12T04:17:57;19.00;99.90
52323;DHT22;38263;52.920;6.238;2023-08-12T04:20:24;19.00;99.90
52323;DHT22;38263;52.920;6.238;2023-08-12T04:22:49;19.00;99.90
52323;DHT22;38263;52.920;6.238;2023-08-12T04:25:15;18.80;99.90
52323;DHT22;38263;52.920;6.238;2023-08-12T04:27:40;18.90;99.90
52323;DHT22;38263;52.920;6.238;2023-08-12T04:30:07;18.90;99.90
52323;DHT22;38263;52.920;6.238;2023-08-12T04:32:32;18.90;99.90
52323;DHT22;38263;52.920;6.238;2023-08-12T04:34:58;18.80;99.90
52323;DHT22;38263;52.920;6.238;2023-08-12T04:37:23;18.90;99.90
52323;DHT22;38263;52.920;6.238;2023-08-12T04:39:50;18.90;99.90
52323;DHT22;38263;52.920;6.238;2023-08-12T04:42:15;19.00;99.90
52323;DHT22;38263;52.920;6.238;2023-08-12T04:44:41;19.00;99.90
52323;DHT22;38263;52.920;6.238;2023-08-12T04:47:07;19.00;99.90
52323;DHT22;38263;52.920;6.238;2023-08-12T04:49:32;19.20;99.90
52323;DHT22;38263;52.920;6.238;2023-08-12T04:54:24;19.20;99.90
52323;DHT22;38263;52.920;6.238;2023-08-12T04:56:49;19.10;99.90
52323;DHT22;38263;52.920;6.238;2023-08-12T04:59:15;19.10;99.90
52323;DHT22;38263;52.920;6.238;2023-08-12T05:01:40;19.10;99.90
52323;DHT22;38263;52.920;6.238;2023-08-12T05:04:06;19.30;99.90
52323;DHT22;38263;52.920;6.238;2023-08-12T05:06:31;19.00;99.90
52323;DHT22;38263;52.920;6.238;2023-08-12T05:08:57;19.10;99.90
52323;DHT22;38263;52.920;6.238;2023-08-12T05:11:22;19.30;99.90
52323;DHT22;38263;52.920;6.238;2023-08-12T05:13:48;19.40;99.90
52323;DHT22;38263;52.920;6.238;2023-08-12T05:21:05;19.50;99.90
52323;DHT22;38263;52.920;6.238;2023-08-12T05:23:31;19.70;99.90
52323;DHT22;38263;52.920;6.238;2023-08-12T05:25:56;19.50;99.90
52323;DHT22;38263;52.920;6.238;2023-08-12T05:28:22;19.60;99.90
52323;DHT22;38263;52.920;6.238;2023-08-12T05:30:48;19.60;99.90
52323;DHT22;38263;52.920;6.238;2023-08-12T05:33:13;19.60;99.90
52323;DHT22;38263;52.920;6.238;2023-08-12T05:35:39;19.50;99.90
52323;DHT22;38263;52.920;6.238;2023-08-12T05:38:04;19.50;99.90
52323;DHT22;38263;52.920;6.238;2023-08-12T05:40:30;19.60;99.90
52323;DHT22;38263;52.920;6.238;2023-08-12T05:42:56;19.70;99.90
52323;DHT22;38263;52.920;6.238;2023-08-12T05:45:21;19.70;99.90
52323;DHT22;38263;52.920;6.238;2023-08-12T05:47:47;19.80;99.90
52323;DHT22;38263;52.920;6.238;2023-08-12T05:50:12;19.90;99.90
52323;DHT22;38263;52.920;6.238;2023-08-12T05:52:38;20.00;99.90
52323;DHT22;38263;52.920;6.238;2023-08-12T05:55:04;19.80;99.90
52323;DHT22;38263;52.920;6.238;2023-08-12T05:57:30;19.80;99.90
52323;DHT22;38263;52.920;6.238;2023-08-12T05:59:55;19.90;99.90
52323;DHT22;38263;52.920;6.238;2023-08-12T06:02:21;19.90;99.90
52323;DHT22;38263;52.920;6.238;2023-08-12T06:04:46;19.80;99.90
52323;DHT22;38263;52.920;6.238;2023-08-12T06:07:12;19.90;99.90
52323;DHT22;38263;52.920;6.238;2023-08-12T06:09:37;19.90;99.90
52323;DHT22;38263;52.920;6.238;2023-08-12T06:12:03;19.80;99.90
52323;DHT22;38263;52.920;6.238;2023-08-12T06:14:29;19.80;99.90
52323;DHT22;38263;52.920;6.238;2023-08-12T06:16:54;19.80;99.90
52323;DHT22;38263;52.920;6.238;2023-08-12T06:19:20;19.80;99.90
52323;DHT22;38263;52.920;6.238;2023-08-12T06:21:45;19.80;99.90
52323;DHT22;38263;52.920;6.238;2023-08-12T06:24:11;19.80;99.90
52323;DHT22;38263;52.920;6.238;2023-08-12T06:26:36;19.70;99.90
52323;DHT22;38263;52.920;6.238;2023-08-12T06:29:02;19.90;99.90
52323;DHT22;38263;52.920;6.238;2023-08-12T06:31:27;20.10;99.90
52323;DHT22;38263;52.920;6.238;2023-08-12T06:33:53;19.90;99.90
52323;DHT22;38263;52.920;6.238;2023-08-12T06:36:18;19.90;99.90
52323;DHT22;38263;52.920;6.238;2023-08-12T06:38:44;19.90;99.90
52323;DHT22;38263;52.920;6.238;2023-08-12T06:41:10;19.90;99.90
52323;DHT22;38263;52.920;6.238;2023-08-12T06:43:35;20.00;99.90
52323;DHT22;38263;52.920;6.238;2023-08-12T06:46:01;19.90;99.90
52323;DHT22;38263;52.920;6.238;2023-08-12T06:48:26;19.90;99.90
52323;DHT22;38263;52.920;6.238;2023-08-12T06:50:56;19.90;99.90
52323;DHT22;38263;52.920;6.238;2023-08-12T06:53:21;19.80;99.90
52323;DHT22;38263;52.920;6.238;2023-08-12T06:55:47;20.00;99.90
52323;DHT22;38263;52.920;6.238;2023-08-12T06:58:13;19.70;99.90
52323;DHT22;38263;52.920;6.238;2023-08-12T07:00:40;19.90;99.90
52323;DHT22;38263;52.920;6.238;2023-08-12T07:03:05;19.80;99.90
52323;DHT22;38263;52.920;6.238;2023-08-12T07:05:31;19.90;99.90
52323;DHT22;38263;52.920;6.238;2023-08-12T07:07:56;19.90;99.90
52323;DHT22;38263;52.920;6.238;2023-08-12T07:10:22;20.00;99.90
52323;DHT22;38263;52.920;6.238;2023-08-12T07:12:48;19.90;99.90
52323;DHT22;38263;52.920;6.238;2023-08-12T07:15:13;20.10;99.90
52323;DHT22;38263;52.920;6.238;2023-08-12T07:17:39;20.10;99.90
52323;DHT22;38263;52.920;6.238;2023-08-12T07:20:05;20.00;99.90
52323;DHT22;38263;52.920;6.238;2023-08-12T07:22:31;20.00;99.90
52323;DHT22;38263;52.920;6.238;2023-08-12T07:24:57;20.10;99.90
52323;DHT22;38263;52.920;6.238;2023-08-12T07:27:25;20.10;99.90
52323;DHT22;38263;52.920;6.238;2023-08-12T07:29:51;20.20;99.90
52323;DHT22;38263;52.920;6.238;2023-08-12T07:32:17;20.30;99.90
52323;DHT22;38263;52.920;6.238;2023-08-12T07:34:44;20.30;99.90
52323;DHT22;38263;52.920;6.238;2023-08-12T07:37:10;20.20;99.90
52323;DHT22;38263;52.920;6.238;2023-08-12T07:39:35;20.30;99.90
52323;DHT22;38263;52.920;6.238;2023-08-12T07:42:01;20.40;99.90
52323;DHT22;38263;52.920;6.238;2023-08-12T07:44:26;20.40;99.90
52323;DHT22;38263;52.920;6.238;2023-08-12T07:46:52;20.30;99.90
52323;DHT22;38263;52.920;6.238;2023-08-12T07:49:17;20.20;99.90
52323;DHT22;38263;52.920;6.238;2023-08-12T07:51:43;20.40;99.90
52323;DHT22;38263;52.920;6.238;2023-08-12T07:54:09;20.60;99.90
52323;DHT22;38263;52.920;6.238;2023-08-12T07:56:34;20.50;99.90
52323;DHT22;38263;52.920;6.238;2023-08-12T07:59:00;20.40;99.90
52323;DHT22;38263;52.920;6.238;2023-08-12T08:01:25;20.60;99.90
52323;DHT22;38263;52.920;6.238;2023-08-12T08:03:51;20.50;99.90
52323;DHT22;38263;52.920;6.238;2023-08-12T08:06:16;20.70;99.90
52323;DHT22;38263;52.920;6.238;2023-08-12T08:08:42;20.40;99.90
52323;DHT22;38263;52.920;6.238;2023-08-12T08:11:07;20.60;99.90
52323;DHT22;38263;52.920;6.238;2023-08-12T08:13:33;20.70;99.90
52323;DHT22;38263;52.920;6.238;2023-08-12T08:15:59;20.40;99.90
52323;DHT22;38263;52.920;6.238;2023-08-12T08:18:24;20.40;99.90
52323;DHT22;38263;52.920;6.238;2023-08-12T08:20:50;20.40;99.90
52323;DHT22;38263;52.920;6.238;2023-08-12T08:23:15;20.30;99.90
52323;DHT22;38263;52.920;6.238;2023-08-12T08:25:41;20.30;99.90
52323;DHT22;38263;52.920;6.238;2023-08-12T08:28:06;20.40;99.90
52323;DHT22;38263;52.920;6.238;2023-08-12T08:30:32;20.20;99.90
52323;DHT22;38263;52.920;6.238;2023-08-12T08:32:57;20.40;99.90
52323;DHT22;38263;52.920;6.238;2023-08-12T08:35:23;20.40;99.90
52323;DHT22;38263;52.920;6.238;2023-08-12T08:37:49;20.60;99.90
52323;DHT22;38263;52.920;6.238;2023-08-12T08:40:14;20.50;99.90
52323;DHT22;38263;52.920;6.238;2023-08-12T08:42:41;20.50;99.90
52323;DHT22;38263;52.920;6.238;2023-08-12T08:45:12;20.20;99.90
52323;DHT22;38263;52.920;6.238;2023-08-12T08:47:38;20.20;99.90
52323;DHT22;38263;52.920;6.238;2023-08-12T08:50:04;20.20;99.90
52323;DHT22;38263;52.920;6.238;2023-08-12T08:52:31;20.20;99.90
52323;DHT22;38263;52.920;6.238;2023-08-12T08:54:58;20.10;99.90
52323;DHT22;38263;52.920;6.238;2023-08-12T08:57:26;20.20;99.90
52323;DHT22;38263;52.920;6.238;2023-08-12T08:59:53;20.20;99.90
52323;DHT22;38263;52.920;6.238;2023-08-12T09:02:19;20.10;99.90
52323;DHT22;38263;52.920;6.238;2023-08-12T09:04:46;20.30;99.90
52323;DHT22;38263;52.920;6.238;2023-08-12T09:07:13;20.00;99.90
52323;DHT22;38263;52.920;6.238;2023-08-12T09:09:45;20.20;99.90
52323;DHT22;38263;52.920;6.238;2023-08-12T09:12:14;20.20;99.90
52323;DHT22;38263;52.920;6.238;2023-08-12T09:14:41;20.20;99.90
52323;DHT22;38263;52.920;6.238;2023-08-12T09:17:06;20.20;99.90
52323;DHT22;38263;52.920;6.238;2023-08-12T09:19:32;20.10;99.90
52323;DHT22;38263;52.920;6.238;2023-08-12T09:21:58;20.10;99.90
52323;DHT22;38263;52.920;6.238;2023-08-12T09:24:27;20.10;99.90
52323;DHT22;38263;52.920;6.238;2023-08-12T09:26:54;19.90;99.90
52323;DHT22;38263;52.920;6.238;2023-08-12T09:29:24;20.00;99.90
52323;DHT22;38263;52.920;6.238;2023-08-12T09:31:54;19.90;99.90
52323;DHT22;38263;52.920;6.238;2023-08-12T09:34:19;19.90;99.90
52323;DHT22;38263;52.920;6.238;2023-08-12T09:36:46;19.90;99.90
52323;DHT22;38263;52.920;6.238;2023-08-12T09:39:12;19.90;99.90
52323;DHT22;38263;52.920;6.238;2023-08-12T09:41:38;20.10;99.90
52323;DHT22;38263;52.920;6.238;2023-08-12T09:44:05;19.80;99.90
52323;DHT22;38263;52.920;6.238;2023-08-12T09:46:33;19.70;99.90
52323;DHT22;38263;52.920;6.238;2023-08-12T09:48:59;20.10;99.90
52323;DHT22;38263;52.920;6.238;2023-08-12T09:51:24;19.90;99.90
52323;DHT22;38263;52.920;6.238;2023-08-12T09:53:51;19.70;99.90
52323;DHT22;38263;52.920;6.238;2023-08-12T09:56:19;19.80;99.90
52323;DHT22;38263;52.920;6.238;2023-08-12T09:58:48;19.70;99.90
52323;DHT22;38263;52.920;6.238;2023-08-12T10:01:18;19.80;99.90
52323;DHT22;38263;52.920;6.238;2023-08-12T10:03:47;19.60;99.90
52323;DHT22;38263;52.920;6.238;2023-08-12T10:06:15;19.90;99.90
52323;DHT22;38263;52.920;6.238;2023-08-12T10:08:41;19.90;99.90
52323;DHT22;38263;52.920;6.238;2023-08-12T10:11:07;19.80;99.90
52323;DHT22;38263;52.920;6.238;2023-08-12T10:13:33;19.80;99.90
52323;DHT22;38263;52.920;6.238;2023-08-12T10:16:00;19.60;99.90
52323;DHT22;38263;52.920;6.238;2023-08-12T10:18:27;19.80;99.90
52323;DHT22;38263;52.920;6.238;2023-08-12T10:20:53;21.90;99.90
52323;DHT22;38263;52.920;6.238;2023-08-12T10:23:21;20.00;99.90
52323;DHT22;38263;52.920;6.238;2023-08-12T10:25:47;19.90;99.90
52323;DHT22;38263;52.920;6.238;2023-08-12T10:28:14;19.90;99.90
52323;DHT22;38263;52.920;6.238;2023-08-12T10:30:44;19.90;99.90
52323;DHT22;38263;52.920;6.238;2023-08-12T10:33:11;19.80;99.90
52323;DHT22;38263;52.920;6.238;2023-08-12T10:35:49;20.00;99.90
52323;DHT22;38263;52.920;6.238;2023-08-12T10:38:19;20.10;99.90
52323;DHT22;38263;52.920;6.238;2023-08-12T10:40:45;19.80;99.90
52323;DHT22;38263;52.920;6.238;2023-08-12T10:43:12;20.10;99.90
52323;DHT22;38263;52.920;6.238;2023-08-12T10:48:18;19.90;99.90
52323;DHT22;38263;52.920;6.238;2023-08-12T10:50:58;20.30;99.90
52323;DHT22;38263;52.920;6.238;2023-08-12T10:53:33;20.10;99.90
52323;DHT22;38263;52.920;6.238;2023-08-12T10:56:03;20.10;99.90
52323;DHT22;38263;52.920;6.238;2023-08-12T10:58:45;20.20;99.90
52323;DHT22;38263;52.920;6.238;2023-08-12T11:01:16;20.30;99.90
52323;DHT22;38263;52.920;6.238;2023-08-12T11:03:43;20.40;99.90
52323;DHT22;38263;52.920;6.238;2023-08-12T11:06:10;20.30;99.90
52323;DHT22;38263;52.920;6.238;2023-08-12T11:08:36;20.00;99.90
52323;DHT22;38263;52.920;6.238;2023-08-12T11:11:02;20.10;99.90
52323;DHT22;38263;52.920;6.238;2023-08-12T11:13:28;20.30;99.90
52323;DHT22;38263;52.920;6.238;2023-08-12T11:16:06;20.30;99.90
52323;DHT22;38263;52.920;6.238;2023-08-12T11:18:32;20.20;99.90
52323;DHT22;38263;52.920;6.238;2023-08-12T11:20:58;20.20;99.90
52323;DHT22;38263;52.920;6.238;2023-08-12T11:23:24;21.30;99.90
52323;DHT22;38263;52.920;6.238;2023-08-12T11:25:50;19.90;99.90
52323;DHT22;38263;52.920;6.238;2023-08-12T11:28:18;19.90;99.90
52323;DHT22;38263;52.920;6.238;2023-08-12T11:30:45;19.90;99.90
52323;DHT22;38263;52.920;6.238;2023-08-12T11:33:11;20.10;99.90
52323;DHT22;38263;52.920;6.238;2023-08-12T11:35:37;19.60;99.90
52323;DHT22;38263;52.920;6.238;2023-08-12T11:38:05;19.60;99.90
52323;DHT22;38263;52.920;6.238;2023-08-12T11:40:30;19.70;99.90
52323;DHT22;38263;52.920;6.238;2023-08-12T11:42:56;19.60;99.90
52323;DHT22;38263;52.920;6.238;2023-08-12T11:45:23;19.60;99.90
52323;DHT22;38263;52.920;6.238;2023-08-12T11:47:49;19.60;99.90
52323;DHT22;38263;52.920;6.238;2023-08-12T11:50:19;19.70;99.90
52323;DHT22;38263;52.920;6.238;2023-08-12T11:52:46;19.80;99.90
52323;DHT22;38263;52.920;6.238;2023-08-12T11:55:12;19.70;99.90
52323;DHT22;38263;52.920;6.238;2023-08-12T11:57:39;19.60;99.90
52323;DHT22;38263;52.920;6.238;2023-08-12T12:00:07;19.70;99.90
52323;DHT22;38263;52.920;6.238;2023-08-12T12:02:52;19.60;99.90
52323;DHT22;38263;52.920;6.238;2023-08-12T12:05:20;19.50;99.90
52323;DHT22;38263;52.920;6.238;2023-08-12T12:07:48;19.60;99.90
52323;DHT22;38263;52.920;6.238;2023-08-12T12:10:19;19.60;99.90
52323;DHT22;38263;52.920;6.238;2023-08-12T12:12:45;19.70;99.90
52323;DHT22;38263;52.920;6.238;2023-08-12T12:15:13;19.90;99.90
52323;DHT22;38263;52.920;6.238;2023-08-12T12:17:39;20.00;99.90
52323;DHT22;38263;52.920;6.238;2023-08-12T12:20:07;20.00;99.90
52323;DHT22;38263;52.920;6.238;2023-08-12T12:22:36;20.10;99.90
52323;DHT22;38263;52.920;6.238;2023-08-12T12:25:13;20.40;99.90
52323;DHT22;38263;52.920;6.238;2023-08-12T12:27:40;20.40;99.90
52323;DHT22;38263;52.920;6.238;2023-08-12T12:30:10;20.40;99.90
52323;DHT22;38263;52.920;6.238;2023-08-12T12:32:36;20.50;99.90
52323;DHT22;38263;52.920;6.238;2023-08-12T12:35:02;20.70;99.90
52323;DHT22;38263;52.920;6.238;2023-08-12T12:37:29;20.80;99.90
52323;DHT22;38263;52.920;6.238;2023-08-12T12:39:54;20.80;99.90
52323;DHT22;38263;52.920;6.238;2023-08-12T12:42:20;20.70;99.90
52323;DHT22;38263;52.920;6.238;2023-08-12T12:44:46;20.50;99.90
52323;DHT22;38263;52.920;6.238;2023-08-12T12:47:11;20.60;99.90
52323;DHT22;38263;52.920;6.238;2023-08-12T12:49:38;20.80;99.90
52323;DHT22;38263;52.920;6.238;2023-08-12T12:52:04;21.00;99.90
52323;DHT22;38263;52.920;6.238;2023-08-12T12:54:30;20.90;99.90
52323;DHT22;38263;52.920;6.238;2023-08-12T12:56:56;21.10;99.90
52323;DHT22;38263;52.920;6.238;2023-08-12T12:59:22;21.30;99.90
52323;DHT22;38263;52.920;6.238;2023-08-12T13:01:48;21.00;99.90
52323;DHT22;38263;52.920;6.238;2023-08-12T13:04:14;21.00;99.90
52323;DHT22;38263;52.920;6.238;2023-08-12T13:06:39;21.20;99.90
52323;DHT22;38263;52.920;6.238;2023-08-12T13:09:05;21.40;99.90
52323;DHT22;38263;52.920;6.238;2023-08-12T13:11:32;21.30;99.90
52323;DHT22;38263;52.920;6.238;2023-08-12T13:14:00;21.10;99.90
52323;DHT22;38263;52.920;6.238;2023-08-12T13:16:25;21.30;99.90
52323;DHT22;38263;52.920;6.238;2023-08-12T13:18:51;21.20;99.90
52323;DHT22;38263;52.920;6.238;2023-08-12T13:21:16;21.30;99.90
52323;DHT22;38263;52.920;6.238;2023-08-12T13:23:42;21.40;99.90
52323;DHT22;38263;52.920;6.238;2023-08-12T13:26:07;21.50;99.90
52323;DHT22;38263;52.920;6.238;2023-08-12T13:28:33;21.60;99.90
52323;DHT22;38263;52.920;6.238;2023-08-12T13:30:59;21.50;99.90
52323;DHT22;38263;52.920;6.238;2023-08-12T13:33:25;21.50;99.90
52323;DHT22;38263;52.920;6.238;2023-08-12T13:35:50;21.60;99.90
52323;DHT22;38263;52.920;6.238;2023-08-12T13:38:16;21.60;99.90
52323;DHT22;38263;52.920;6.238;2023-08-12T13:40:42;21.80;99.90
52323;DHT22;38263;52.920;6.238;2023-08-12T13:43:07;21.80;99.90
52323;DHT22;38263;52.920;6.238;2023-08-12T13:45:33;21.80;99.90
52323;DHT22;38263;52.920;6.238;2023-08-12T13:47:58;21.90;99.90
52323;DHT22;38263;52.920;6.238;2023-08-12T13:50:24;22.20;99.90
52323;DHT22;38263;52.920;6.238;2023-08-12T13:52:50;21.90;99.90
52323;DHT22;38263;52.920;6.238;2023-08-12T13:55:15;21.90;99.90
52323;DHT22;38263;52.920;6.238;2023-08-12T13:57:41;22.00;99.90
52323;DHT22;38263;52.920;6.238;2023-08-12T14:00:07;22.00;99.90
52323;DHT22;38263;52.920;6.238;2023-08-12T14:02:36;21.90;99.90
52323;DHT22;38263;52.920;6.238;2023-08-12T14:05:02;22.20;99.90
52323;DHT22;38263;52.920;6.238;2023-08-12T14:07:28;22.10;99.90
52323;DHT22;38263;52.920;6.238;2023-08-12T14:09:54;22.20;99.90
52323;DHT22;38263;52.920;6.238;2023-08-12T14:12:20;22.40;99.90
52323;DHT22;38263;52.920;6.238;2023-08-12T14:14:45;22.00;99.90
52323;DHT22;38263;52.920;6.238;2023-08-12T14:17:11;22.10;99.90
52323;DHT22;38263;52.920;6.238;2023-08-12T14:19:39;22.00;99.90
52323;DHT22;38263;52.920;6.238;2023-08-12T14:22:06;22.40;99.90
52323;DHT22;38263;52.920;6.238;2023-08-12T14:24:31;22.30;99.90
52323;DHT22;38263;52.920;6.238;2023-08-12T14:26:57;22.30;99.90
52323;DHT22;38263;52.920;6.238;2023-08-12T14:29:22;22.30;99.90
52323;DHT22;38263;52.920;6.238;2023-08-12T14:31:48;22.30;99.90
52323;DHT22;38263;52.920;6.238;2023-08-12T14:34:13;22.30;99.90
52323;DHT22;38263;52.920;6.238;2023-08-12T14:36:39;22.50;99.90
52323;DHT22;38263;52.920;6.238;2023-08-12T14:39:05;22.20;99.90
52323;DHT22;38263;52.920;6.238;2023-08-12T14:41:31;22.70;99.90
52323;DHT22;38263;52.920;6.238;2023-08-12T14:43:56;22.40;99.90
52323;DHT22;38263;52.920;6.238;2023-08-12T14:46:22;22.50;99.90
52323;DHT22;38263;52.920;6.238;2023-08-12T14:48:47;22.50;99.90
52323;DHT22;38263;52.920;6.238;2023-08-12T14:51:13;22.40;99.90
52323;DHT22;38263;52.920;6.238;2023-08-12T14:53:38;22.50;99.90
52323;DHT22;38263;52.920;6.238;2023-08-12T14:56:04;22.70;99.90
52323;DHT22;38263;52.920;6.238;2023-08-12T14:58:29;22.50;99.90
52323;DHT22;38263;52.920;6.238;2023-08-12T15:00:55;22.50;99.90
52323;DHT22;38263;52.920;6.238;2023-08-12T15:03:22;22.60;99.90
52323;DHT22;38263;52.920;6.238;2023-08-12T15:05:47;22.50;99.90
52323;DHT22;38263;52.920;6.238;2023-08-12T15:08:13;22.40;99.90
52323;DHT22;38263;52.920;6.238;2023-08-12T15:10:38;23.90;99.90
52323;DHT22;38263;52.920;6.238;2023-08-12T15:13:04;22.80;99.90
52323;DHT22;38263;52.920;6.238;2023-08-12T15:15:29;22.50;99.90
52323;DHT22;38263;52.920;6.238;2023-08-12T15:17:55;22.70;99.90
52323;DHT22;38263;52.920;6.238;2023-08-12T15:20:20;22.40;99.90
52323;DHT22;38263;52.920;6.238;2023-08-12T15:22:46;22.40;99.90
52323;DHT22;38263;52.920;6.238;2023-08-12T15:25:11;22.60;99.90
52323;DHT22;38263;52.920;6.238;2023-08-12T15:27:37;22.60;99.90
52323;DHT22;38263;52.920;6.238;2023-08-12T15:30:03;22.50;99.90
52323;DHT22;38263;52.920;6.238;2023-08-12T15:32:29;22.60;99.90
52323;DHT22;38263;52.920;6.238;2023-08-12T15:34:55;22.90;99.90
52323;DHT22;38263;52.920;6.238;2023-08-12T15:37:21;22.90;99.90
52323;DHT22;38263;52.920;6.238;2023-08-12T15:39:47;23.00;99.90
52323;DHT22;38263;52.920;6.238;2023-08-12T15:42:12;22.90;99.90
52323;DHT22;38263;52.920;6.238;2023-08-12T15:44:38;22.70;99.90
52323;DHT22;38263;52.920;6.238;2023-08-12T15:47:03;22.90;99.90
52323;DHT22;38263;52.920;6.238;2023-08-12T15:49:32;22.70;99.90
52323;DHT22;38263;52.920;6.238;2023-08-12T15:51:59;22.60;99.90
52323;DHT22;38263;52.920;6.238;2023-08-12T15:54:24;22.70;99.90
52323;DHT22;38263;52.920;6.238;2023-08-12T15:56:50;22.50;99.90
52323;DHT22;38263;52.920;6.238;2023-08-12T15:59:16;22.70;99.90
52323;DHT22;38263;52.920;6.238;2023-08-12T16:01:41;22.70;99.90
52323;DHT22;38263;52.920;6.238;2023-08-12T16:04:07;22.50;99.90
52323;DHT22;38263;52.920;6.238;2023-08-12T16:06:33;22.60;99.90
52323;DHT22;38263;52.920;6.238;2023-08-12T16:08:58;22.60;99.90
52323;DHT22;38263;52.920;6.238;2023-08-12T16:11:24;22.70;99.90
52323;DHT22;38263;52.920;6.238;2023-08-12T16:13:50;22.60;99.90
52323;DHT22;38263;52.920;6.238;2023-08-12T16:16:16;22.80;99.90
52323;DHT22;38263;52.920;6.238;2023-08-12T16:18:41;22.50;99.90
52323;DHT22;38263;52.920;6.238;2023-08-12T16:21:07;22.60;99.90
52323;DHT22;38263;52.920;6.238;2023-08-12T16:23:32;22.50;99.90
52323;DHT22;38263;52.920;6.238;2023-08-12T16:25:58;22.40;99.90
52323;DHT22;38263;52.920;6.238;2023-08-12T16:28:25;22.60;99.90
52323;DHT22;38263;52.920;6.238;2023-08-12T16:30:51;22.60;99.90
52323;DHT22;38263;52.920;6.238;2023-08-12T16:33:16;22.60;99.90
52323;DHT22;38263;52.920;6.238;2023-08-12T16:35:42;22.80;99.90
52323;DHT22;38263;52.920;6.238;2023-08-12T16:38:08;22.70;99.90
52323;DHT22;38263;52.920;6.238;2023-08-12T16:40:33;22.70;99.90
52323;DHT22;38263;52.920;6.238;2023-08-12T16:42:59;22.30;99.90
52323;DHT22;38263;52.920;6.238;2023-08-12T16:45:24;22.70;99.90